createdAt,value
2023-04-25T00:03:15.610Z,13.40
2023-04-25T00:08:18.069Z,13.40
2023-04-25T00:13:20.390Z,13.40
2023-04-25T00:18:22.616Z,13.40
2023-04-25T00:28:27.011Z,13.50
2023-04-25T00:33:29.016Z,13.40
2023-04-25T00:38:31.319Z,13.40
2023-04-25T00:43:33.756Z,13.40
2023-04-25T00:48:35.901Z,13.30
2023-04-25T00:53:38.304Z,13.30
2023-04-25T00:58:41.140Z,13.30
2023-04-25T01:03:43.964Z,13.30
2023-04-25T01:08:46.374Z,13.30
2023-04-25T01:13:48.974Z,13.30
2023-04-25T01:18:52.335Z,13.20
2023-04-25T01:23:55.243Z,13.20
2023-04-25T01:28:57.691Z,13.20
2023-04-25T01:33:59.788Z,13.20
2023-04-25T01:39:04.263Z,13.20
2023-04-25T01:44:06.559Z,13.20
2023-04-25T01:54:12.073Z,13.20
2023-04-25T01:59:14.140Z,13.20
2023-04-25T02:04:16.538Z,13.20
2023-04-25T02:14:21.946Z,13.10
2023-04-25T02:24:28.896Z,13.10
2023-04-25T02:29:31.670Z,13.10
2023-04-25T02:34:33.707Z,13.10
2023-04-25T02:39:36.340Z,13.20
2023-04-25T02:44:38.314Z,13.10
2023-04-25T02:49:41.283Z,13.20
2023-04-25T02:54:44.002Z,13.10
2023-04-25T02:59:46.256Z,13.10
2023-04-25T03:04:48.920Z,13.10
2023-04-25T03:09:51.314Z,13.10
2023-04-25T03:14:53.600Z,13.10
2023-04-25T03:19:56.376Z,13.10
2023-04-25T03:24:58.528Z,13.00
2023-04-25T03:30:00.563Z,13.00
2023-04-25T03:35:02.949Z,13.00
2023-04-25T03:45:09.964Z,12.90
2023-04-25T03:50:12.142Z,12.90
2023-04-25T03:55:14.328Z,12.90
2023-04-25T04:00:16.847Z,12.90
2023-04-25T04:05:18.523Z,12.90
2023-04-25T04:10:24.041Z,12.90
2023-04-25T04:15:26.132Z,12.80
2023-04-25T04:20:31.598Z,12.80
2023-04-25T04:25:35.280Z,12.80
2023-04-25T04:30:38.407Z,12.80
2023-04-25T04:35:41.242Z,12.80
2023-04-25T04:40:44.368Z,12.80
2023-04-25T04:45:46.729Z,12.80
2023-04-25T04:50:50.248Z,12.80
2023-04-25T04:55:52.873Z,12.80
2023-04-25T05:00:56.942Z,12.80
2023-04-25T05:06:02.127Z,12.80
2023-04-25T05:11:04.969Z,12.80
2023-04-25T05:16:07.752Z,12.80
2023-04-25T05:21:09.966Z,12.90
2023-04-25T05:26:14.781Z,13.00
2023-04-25T05:31:18.185Z,13.00
2023-04-25T05:36:20.846Z,13.10
2023-04-25T05:41:23.468Z,13.10
2023-04-25T05:51:29.691Z,13.20
2023-04-25T05:56:32.387Z,13.30
2023-04-25T06:01:34.818Z,13.40
2023-04-25T06:06:37.183Z,13.40
2023-04-25T06:11:39.213Z,13.50
2023-04-25T06:16:41.435Z,13.60
2023-04-25T06:31:48.275Z,13.70
2023-04-25T06:36:50.997Z,13.70
2023-04-25T06:41:54.335Z,13.70
2023-04-25T06:47:04.066Z,13.60
2023-04-25T06:57:08.891Z,13.50
2023-04-25T07:02:12.410Z,13.40
2023-04-25T07:07:14.742Z,13.40
2023-04-25T07:12:17.628Z,13.40
2023-04-25T07:17:19.801Z,13.30
2023-04-25T07:22:22.032Z,13.30
2023-04-25T07:27:24.772Z,13.40
2023-04-25T07:32:27.810Z,13.30
2023-04-25T07:37:30.299Z,13.10
2023-04-25T07:42:33.393Z,13.10
2023-04-25T07:52:39.358Z,13.30
2023-04-25T07:57:42.276Z,13.40
2023-04-25T08:02:45.924Z,13.50
2023-04-25T08:07:49.212Z,13.60
2023-04-25T08:12:52.315Z,13.70
2023-04-25T08:17:54.655Z,13.80
2023-04-25T08:22:56.938Z,13.90
2023-04-25T08:28:00.651Z,14.00
2023-04-25T08:33:03.745Z,14.10
2023-04-25T08:38:08.047Z,14.10
2023-04-25T08:43:13.136Z,14.10
2023-04-25T08:48:17.367Z,14.20
2023-04-25T08:53:23.517Z,14.40
2023-04-25T08:58:25.867Z,14.60
2023-04-25T09:03:28.727Z,14.80
2023-04-25T09:08:31.327Z,15.00
2023-04-25T09:13:33.587Z,15.10
2023-04-25T09:18:38.198Z,15.40
2023-04-25T09:28:44.089Z,15.70
2023-04-25T09:33:46.870Z,15.80
2023-04-25T09:38:49.638Z,15.90
2023-04-25T09:43:52.076Z,15.90
2023-04-25T09:48:55.065Z,16.00
2023-04-25T09:53:57.842Z,16.00
2023-04-25T09:59:00.754Z,16.00
2023-04-25T10:04:04.878Z,16.10
2023-04-25T10:09:09.028Z,16.00
2023-04-25T10:14:13.077Z,15.90
2023-04-25T10:19:16.262Z,15.90
2023-04-25T10:24:18.871Z,15.90
2023-04-25T10:29:25.074Z,16.00
2023-04-25T10:34:40.871Z,15.90
2023-04-25T10:39:43.732Z,15.90
2023-04-25T10:45:01.704Z,16.10
2023-04-25T10:50:08.712Z,16.10
2023-04-25T10:55:11.216Z,16.30
2023-04-25T11:00:13.994Z,16.30
2023-04-25T11:05:23.991Z,16.20
2023-04-25T11:10:30.132Z,16.00
2023-04-25T11:15:32.143Z,16.00
2023-04-25T11:20:34.250Z,16.00
2023-04-25T11:25:38.643Z,16.00
2023-04-25T11:30:48.519Z,16.10
2023-04-25T11:35:50.971Z,16.20
2023-04-25T11:40:53.550Z,16.20
2023-04-25T11:45:55.612Z,16.40
2023-04-25T11:56:00.360Z,16.40
2023-04-25T12:01:03.930Z,16.50
2023-04-25T12:06:06.373Z,16.60
2023-04-25T12:11:21.042Z,16.80
2023-04-25T12:16:23.083Z,16.80
2023-04-25T12:26:46.250Z,16.80
2023-04-25T12:31:48.687Z,16.90
2023-04-25T12:36:51.956Z,17.10
2023-04-25T12:41:56.881Z,17.40
2023-04-25T12:52:03.183Z,17.60
2023-04-25T12:57:05.617Z,17.70
2023-04-25T13:02:07.780Z,17.70
2023-04-25T13:07:09.783Z,17.70
2023-04-25T13:12:11.900Z,17.80
2023-04-25T13:17:14.068Z,17.80
2023-04-25T13:22:17.779Z,17.80
2023-04-25T13:27:19.824Z,17.70
2023-04-25T13:32:21.907Z,17.60
2023-04-25T13:37:25.142Z,17.60
2023-04-25T13:42:27.227Z,17.80
2023-04-25T13:47:29.990Z,18.20
2023-04-25T13:52:32.700Z,18.40
2023-04-25T13:57:35.200Z,18.30
2023-04-25T14:02:37.536Z,18.20
2023-04-25T14:07:39.684Z,18.10
2023-04-25T14:22:48.791Z,17.50
2023-04-25T14:27:51.118Z,17.30
2023-04-25T14:32:53.300Z,17.20
2023-04-25T14:37:55.322Z,17.20
2023-04-25T14:42:57.473Z,17.20
2023-04-25T14:48:00.219Z,17.20
2023-04-25T14:53:02.686Z,17.20
2023-04-25T14:58:04.694Z,17.40
2023-04-25T15:03:08.368Z,17.50
2023-04-25T15:08:11.380Z,17.50
2023-04-25T15:13:13.591Z,17.50
2023-04-25T15:18:15.731Z,17.60
2023-04-25T15:23:18.888Z,17.50
2023-04-25T15:28:22.485Z,17.40
2023-04-25T15:33:24.715Z,17.30
2023-04-25T15:38:26.742Z,17.30
2023-04-25T15:43:29.105Z,17.20
2023-04-25T15:48:32.658Z,17.20
2023-04-25T15:53:34.675Z,17.10
2023-04-25T15:58:36.911Z,16.90
2023-04-25T16:03:39.497Z,16.90
2023-04-25T16:08:41.793Z,16.80
2023-04-25T16:13:44.007Z,16.70
2023-04-25T16:18:46.317Z,16.50
2023-04-25T16:23:48.562Z,16.40
2023-04-25T16:28:50.788Z,16.20
2023-04-25T16:33:53.149Z,16.20
2023-04-25T16:38:55.754Z,16.10
2023-04-25T16:43:57.758Z,16.00
2023-04-25T16:48:59.790Z,15.90
2023-04-25T16:54:01.793Z,15.80
2023-04-25T16:59:03.801Z,15.80
2023-04-25T17:04:05.893Z,15.80
2023-04-25T17:09:08.070Z,15.70
2023-04-25T17:14:10.189Z,15.60
2023-04-25T17:19:12.222Z,15.50
2023-04-25T17:24:15.732Z,15.40
2023-04-25T17:29:19.036Z,15.30
2023-04-25T17:34:22.019Z,15.20
2023-04-25T17:39:24.888Z,15.20
2023-04-25T17:44:26.928Z,15.20
2023-04-25T17:49:29.263Z,15.10
2023-04-25T17:54:31.307Z,15.00
2023-04-25T17:59:33.400Z,15.00
2023-04-25T18:04:35.431Z,14.90
2023-04-25T18:09:37.478Z,14.90
2023-04-25T18:14:39.816Z,14.80
2023-04-25T18:19:42.298Z,14.80
2023-04-25T18:24:45.974Z,14.70
2023-04-25T18:29:48.064Z,14.60
2023-04-25T18:39:52.800Z,14.40
2023-04-25T18:44:54.773Z,14.20
2023-04-25T18:49:56.836Z,14.10
2023-04-25T18:54:58.807Z,14.00
2023-04-25T19:00:05.168Z,13.90
2023-04-25T19:05:07.693Z,13.80
2023-04-25T19:10:10.427Z,13.70
2023-04-25T19:20:16.231Z,13.50
2023-04-25T19:25:18.421Z,13.40
2023-04-25T19:30:20.553Z,13.20
2023-04-25T19:35:23.532Z,13.10
2023-04-25T19:40:26.214Z,13.00
2023-04-25T19:45:28.314Z,13.00
2023-04-25T19:50:31.216Z,12.90
2023-04-25T19:55:33.257Z,12.90
2023-04-25T20:00:35.301Z,12.90
2023-04-25T20:05:37.780Z,12.80
2023-04-25T20:10:39.852Z,12.80
2023-04-25T20:15:42.482Z,12.70
2023-04-25T20:20:44.485Z,12.70
2023-04-25T20:30:49.547Z,12.50
2023-04-25T20:40:56.276Z,12.50
2023-04-25T20:45:59.884Z,12.40
2023-04-25T20:51:02.319Z,12.30
2023-04-25T20:56:06.275Z,12.20
2023-04-25T21:01:08.866Z,12.20
2023-04-25T21:06:10.865Z,12.20
2023-04-25T21:11:12.940Z,12.20
2023-04-25T21:16:14.914Z,12.20
2023-04-25T21:21:17.315Z,12.10
2023-04-25T21:26:19.621Z,12.10
2023-04-25T21:31:22.242Z,11.90
2023-04-25T21:36:24.413Z,11.70
2023-04-25T21:41:26.490Z,11.60
2023-04-25T21:46:28.485Z,11.40
2023-04-25T21:51:32.837Z,11.10
2023-04-25T21:56:34.918Z,10.90
2023-04-25T22:01:37.085Z,10.80
2023-04-25T22:06:39.172Z,10.60
2023-04-25T22:11:42.881Z,10.50
2023-04-25T22:21:48.444Z,10.30
2023-04-25T22:26:50.478Z,10.20
2023-04-25T22:31:52.502Z,10.10
2023-04-25T22:36:55.139Z,10.00
2023-04-25T22:41:58.303Z,9.90
2023-04-25T22:47:01.430Z,9.90
2023-04-25T22:52:04.315Z,9.80
2023-04-25T22:57:07.712Z,9.70
2023-04-25T23:02:10.670Z,9.70
2023-04-25T23:07:13.687Z,9.60
2023-04-25T23:12:19.379Z,9.50
2023-04-25T23:17:21.440Z,9.40
2023-04-25T23:22:24.339Z,9.40
2023-04-25T23:27:26.696Z,9.30
2023-04-25T23:32:28.708Z,9.20
2023-04-25T23:37:34.322Z,9.20
2023-04-25T23:42:37.108Z,9.10
2023-04-25T23:47:39.102Z,9.00
2023-04-25T23:52:41.312Z,9.00
2023-04-25T23:57:44.231Z,8.90
